createdAt,value
2023-02-06T00:00:57.204Z,3.00
2023-02-06T00:03:24.941Z,3.00
2023-02-06T00:05:57.674Z,3.00
2023-02-06T00:08:25.635Z,3.00
2023-02-06T00:10:55.303Z,2.90
2023-02-06T00:13:23.597Z,2.90
2023-02-06T00:15:51.498Z,2.90
2023-02-06T00:18:19.223Z,2.80
2023-02-06T00:20:46.959Z,2.80
2023-02-06T00:23:14.722Z,2.80
2023-02-06T00:25:42.460Z,2.80
2023-02-06T00:28:11.959Z,2.70
2023-02-06T00:30:39.769Z,2.70
2023-02-06T00:33:07.621Z,2.60
2023-02-06T00:35:35.597Z,2.60
2023-02-06T00:38:03.503Z,2.60
2023-02-06T00:40:31.249Z,2.50
2023-02-06T00:42:58.974Z,2.50
2023-02-06T00:45:28.046Z,2.50
2023-02-06T00:47:55.796Z,2.50
2023-02-06T00:50:23.543Z,2.40
2023-02-06T00:52:51.321Z,2.40
2023-02-06T00:55:19.198Z,2.40
2023-02-06T00:57:46.957Z,2.40
2023-02-06T01:00:15.784Z,2.40
2023-02-06T01:02:44.908Z,2.40
2023-02-06T01:05:12.684Z,2.30
2023-02-06T01:07:40.899Z,2.30
2023-02-06T01:10:10.831Z,2.30
2023-02-06T01:12:38.890Z,2.30
2023-02-06T01:15:08.772Z,2.20
2023-02-06T01:17:36.728Z,2.20
2023-02-06T01:20:07.995Z,2.20
2023-02-06T01:22:36.868Z,2.20
2023-02-06T01:25:05.926Z,2.20
2023-02-06T01:27:35.542Z,2.20
2023-02-06T01:30:03.383Z,2.10
2023-02-06T01:32:31.124Z,2.10
2023-02-06T01:34:58.848Z,2.00
2023-02-06T01:37:29.890Z,2.00
2023-02-06T01:39:57.586Z,1.90
2023-02-06T01:42:25.383Z,1.90
2023-02-06T01:45:33.502Z,1.90
2023-02-06T01:48:05.434Z,1.80
2023-02-06T01:50:35.054Z,1.80
2023-02-06T01:53:05.757Z,1.90
2023-02-06T01:55:34.191Z,1.90
2023-02-06T01:58:03.001Z,1.90
2023-02-06T02:00:31.163Z,1.90
2023-02-06T02:02:59.030Z,1.90
2023-02-06T02:05:26.753Z,1.90
2023-02-06T02:08:01.161Z,1.90
2023-02-06T02:10:31.808Z,1.80
2023-02-06T02:12:59.876Z,1.80
2023-02-06T02:15:47.315Z,1.80
2023-02-06T02:18:32.187Z,1.70
2023-02-06T02:21:49.594Z,1.70
2023-02-06T02:24:24.146Z,1.70
2023-02-06T02:27:21.811Z,1.70
2023-02-06T02:30:38.636Z,1.70
2023-02-06T02:33:24.757Z,1.60
2023-02-06T02:35:56.467Z,1.60
2023-02-06T02:42:20.126Z,1.60
2023-02-06T02:44:53.609Z,1.60
2023-02-06T02:47:25.628Z,1.60
2023-02-06T02:49:55.520Z,1.50
2023-02-06T02:52:24.634Z,1.50
2023-02-06T02:54:52.368Z,1.50
2023-02-06T02:57:25.191Z,1.40
2023-02-06T02:59:53.319Z,1.40
2023-02-06T03:02:25.650Z,1.40
2023-02-06T03:04:57.610Z,1.40
2023-02-06T03:07:34.191Z,1.40
2023-02-06T03:10:09.672Z,1.40
2023-02-06T03:12:44.367Z,1.30
2023-02-06T03:15:23.709Z,1.40
2023-02-06T03:17:59.324Z,1.30
2023-02-06T03:20:27.508Z,1.30
2023-02-06T03:22:59.481Z,1.30
2023-02-06T03:25:34.508Z,1.30
2023-02-06T03:28:03.805Z,1.30
2023-02-06T03:30:32.805Z,1.30
2023-02-06T03:33:05.091Z,1.30
2023-02-06T03:35:36.927Z,1.30
2023-02-06T03:38:08.005Z,1.30
2023-02-06T03:40:36.544Z,1.30
2023-02-06T03:43:05.877Z,1.30
2023-02-06T03:45:37.918Z,1.30
2023-02-06T03:48:09.601Z,1.30
2023-02-06T03:50:42.281Z,1.30
2023-02-06T03:53:13.932Z,1.30
2023-02-06T03:55:43.889Z,1.30
2023-02-06T03:58:14.926Z,1.30
2023-02-06T04:00:44.672Z,1.20
2023-02-06T04:03:13.925Z,1.20
2023-02-06T04:05:42.083Z,1.20
2023-02-06T04:08:11.314Z,1.20
2023-02-06T04:10:39.046Z,1.20
2023-02-06T04:13:06.833Z,1.20
2023-02-06T04:15:36.552Z,1.20
2023-02-06T04:18:06.119Z,1.20
2023-02-06T04:20:34.007Z,1.20
2023-02-06T04:23:01.796Z,1.20
2023-02-06T04:25:30.938Z,1.20
2023-02-06T04:27:59.053Z,1.20
2023-02-06T04:30:26.912Z,1.20
2023-02-06T04:32:54.749Z,1.20
2023-02-06T04:35:22.687Z,1.20
2023-02-06T04:37:50.451Z,1.20
2023-02-06T04:40:18.751Z,1.20
2023-02-06T04:42:48.439Z,1.20
2023-02-06T04:45:16.241Z,1.20
2023-02-06T04:47:44.036Z,1.20
2023-02-06T04:50:11.971Z,1.20
2023-02-06T04:52:39.753Z,1.20
2023-02-06T04:55:08.358Z,1.20
2023-02-06T04:57:36.198Z,1.20
2023-02-06T05:00:06.294Z,1.20
2023-02-06T05:02:37.308Z,1.10
2023-02-06T05:05:05.615Z,1.10
2023-02-06T05:07:33.409Z,1.10
2023-02-06T05:10:01.184Z,1.10
2023-02-06T05:12:29.393Z,1.10
2023-02-06T05:14:57.423Z,1.10
2023-02-06T05:17:26.552Z,1.10
2023-02-06T05:19:54.351Z,1.10
2023-02-06T05:22:22.676Z,1.10
2023-02-06T05:24:50.426Z,1.10
2023-02-06T05:27:18.199Z,1.10
2023-02-06T05:29:46.028Z,1.10
2023-02-06T05:32:13.768Z,1.10
2023-02-06T05:34:42.880Z,1.10
2023-02-06T05:37:10.729Z,1.00
2023-02-06T05:39:38.502Z,1.00
2023-02-06T05:42:06.369Z,1.00
2023-02-06T05:44:34.179Z,1.10
2023-02-06T05:47:01.932Z,1.00
2023-02-06T05:49:29.685Z,1.10
2023-02-06T05:51:58.793Z,1.10
2023-02-06T05:54:26.709Z,1.10
2023-02-06T05:56:54.493Z,1.10
2023-02-06T05:59:22.401Z,1.20
2023-02-06T06:01:50.240Z,1.20
2023-02-06T06:04:18.061Z,1.20
2023-02-06T06:06:45.897Z,1.20
2023-02-06T06:09:15.131Z,1.30
2023-02-06T06:11:42.931Z,1.30
2023-02-06T06:14:12.501Z,1.30
2023-02-06T06:16:41.814Z,1.30
2023-02-06T06:19:10.223Z,1.30
2023-02-06T06:21:37.973Z,1.30
2023-02-06T06:24:06.188Z,1.30
2023-02-06T06:26:35.297Z,1.40
2023-02-06T06:29:03.163Z,1.40
2023-02-06T06:31:31.068Z,1.40
2023-02-06T06:33:58.923Z,1.40
2023-02-06T06:36:26.753Z,1.40
2023-02-06T06:38:54.535Z,1.40
2023-02-06T06:41:22.287Z,1.50
2023-02-06T06:43:51.702Z,1.50
2023-02-06T06:46:19.918Z,1.50
2023-02-06T06:48:47.742Z,1.50
2023-02-06T06:51:15.550Z,1.50
2023-02-06T06:53:43.351Z,1.50
2023-02-06T06:56:14.267Z,1.50
2023-02-06T06:58:42.878Z,1.50
2023-02-06T07:01:12.136Z,1.60
2023-02-06T07:03:39.873Z,1.50
2023-02-06T07:06:07.841Z,1.60
2023-02-06T07:08:40.428Z,1.60
2023-02-06T07:11:08.322Z,1.60
2023-02-06T07:13:36.164Z,1.60
2023-02-06T07:16:04.436Z,1.60
2023-02-06T07:18:33.730Z,1.70
2023-02-06T07:21:01.802Z,1.70
2023-02-06T07:23:29.633Z,1.70
2023-02-06T07:26:02.143Z,1.70
2023-02-06T07:28:30.269Z,1.70
2023-02-06T07:31:01.267Z,1.70
2023-02-06T07:33:29.230Z,1.80
2023-02-06T07:35:58.660Z,1.80
2023-02-06T07:38:26.710Z,1.80
2023-02-06T07:40:54.583Z,1.80
2023-02-06T07:43:22.426Z,1.80
2023-02-06T07:45:50.198Z,1.80
2023-02-06T07:48:17.997Z,1.80
2023-02-06T07:50:45.858Z,1.80
2023-02-06T07:53:14.959Z,1.80
2023-02-06T07:55:42.686Z,1.80
2023-02-06T07:58:11.888Z,1.80
2023-02-06T08:00:39.860Z,1.90
2023-02-06T08:03:08.065Z,1.90
2023-02-06T08:05:39.176Z,1.90
2023-02-06T08:08:07.322Z,1.90
2023-02-06T08:10:38.626Z,2.00
2023-02-06T08:13:07.754Z,2.00
2023-02-06T08:15:35.945Z,2.00
2023-02-06T08:18:03.867Z,2.10
2023-02-06T08:20:31.620Z,2.10
2023-02-06T08:22:59.513Z,2.10
2023-02-06T08:25:27.352Z,2.20
2023-02-06T08:27:57.100Z,2.20
2023-02-06T08:30:25.525Z,2.30
2023-02-06T08:32:53.394Z,2.30
2023-02-06T08:35:21.396Z,2.30
2023-02-06T08:37:49.156Z,2.40
2023-02-06T08:40:17.018Z,2.40
2023-02-06T08:42:44.782Z,2.40
2023-02-06T08:45:13.859Z,2.40
2023-02-06T08:47:41.588Z,2.50
2023-02-06T08:50:10.710Z,2.50
2023-02-06T08:52:40.162Z,2.50
2023-02-06T08:55:08.715Z,2.60
2023-02-06T08:57:36.458Z,2.60
2023-02-06T09:00:05.530Z,2.70
2023-02-06T09:02:35.725Z,2.70
2023-02-06T09:05:03.527Z,2.80
2023-02-06T09:07:32.730Z,2.80
2023-02-06T09:10:00.735Z,2.90
2023-02-06T09:12:28.491Z,2.90
2023-02-06T09:14:56.271Z,3.00
2023-02-06T09:17:24.187Z,3.00
2023-02-06T09:19:53.295Z,3.10
2023-02-06T09:22:21.082Z,3.10
2023-02-06T09:24:48.839Z,3.10
2023-02-06T09:27:16.575Z,3.10
2023-02-06T09:29:44.360Z,3.20
2023-02-06T09:32:12.197Z,3.20
2023-02-06T09:34:39.977Z,3.20
2023-02-06T09:37:09.087Z,3.10
2023-02-06T09:39:37.505Z,3.20
2023-02-06T09:42:07.604Z,3.20
2023-02-06T09:44:39.628Z,3.20
2023-02-06T09:47:14.451Z,3.30
2023-02-06T09:49:47.028Z,3.30
2023-02-06T09:52:30.785Z,3.30
2023-02-06T09:55:04.224Z,3.40
2023-02-06T09:57:42.445Z,3.50
2023-02-06T10:00:19.394Z,3.50
2023-02-06T10:03:05.564Z,3.60
2023-02-06T10:05:48.211Z,3.60
2023-02-06T10:08:23.229Z,3.70
2023-02-06T10:10:54.762Z,3.70
2023-02-06T10:13:26.931Z,3.80
2023-02-06T10:15:58.996Z,3.80
2023-02-06T10:18:34.193Z,3.80
2023-02-06T10:21:06.913Z,3.80
2023-02-06T10:23:45.588Z,3.90
2023-02-06T10:26:18.077Z,3.90
2023-02-06T10:28:51.199Z,3.90
2023-02-06T10:31:49.165Z,4.00
2023-02-06T10:34:47.297Z,3.90
2023-02-06T10:37:36.493Z,4.00
2023-02-06T10:40:18.672Z,4.00
2023-02-06T10:42:53.654Z,4.10
2023-02-06T10:45:36.173Z,4.20
2023-02-06T10:48:11.429Z,4.30
2023-02-06T10:50:44.087Z,4.50
2023-02-06T10:53:18.942Z,4.60
2023-02-06T10:55:55.343Z,4.60
2023-02-06T10:58:28.365Z,4.70
2023-02-06T11:00:57.112Z,4.70
2023-02-06T11:03:30.367Z,4.60
2023-02-06T11:05:58.892Z,4.60
2023-02-06T11:08:30.836Z,4.50
2023-02-06T11:11:03.789Z,4.50
2023-02-06T11:13:35.978Z,4.60
2023-02-06T11:16:08.196Z,4.60
2023-02-06T11:18:38.965Z,4.60
2023-02-06T11:21:08.744Z,4.50
2023-02-06T11:23:36.641Z,4.50
2023-02-06T11:26:10.665Z,4.50
2023-02-06T11:28:42.286Z,4.50
2023-02-06T11:31:10.607Z,4.40
2023-02-06T11:33:42.587Z,4.40
2023-02-06T11:36:24.953Z,4.40
2023-02-06T11:38:58.067Z,4.40
2023-02-06T11:41:27.927Z,4.40
2023-02-06T11:44:02.473Z,4.40
2023-02-06T11:46:34.998Z,4.50
2023-02-06T11:49:06.039Z,4.50
2023-02-06T11:51:49.711Z,4.50
2023-02-06T11:54:22.853Z,4.50
2023-02-06T11:57:03.193Z,4.50
2023-02-06T11:59:34.344Z,4.50
2023-02-06T12:02:05.632Z,4.50
2023-02-06T12:04:37.309Z,4.60
2023-02-06T12:07:14.792Z,4.60
2023-02-06T12:09:42.575Z,4.60
2023-02-06T12:12:21.156Z,4.60
2023-02-06T12:14:53.683Z,4.50
2023-02-06T12:17:28.075Z,4.50
2023-02-06T12:20:02.368Z,4.40
2023-02-06T12:22:36.507Z,4.40
2023-02-06T12:25:05.991Z,4.40
2023-02-06T12:27:39.549Z,4.30
2023-02-06T12:30:23.746Z,4.30
2023-02-06T12:32:59.593Z,4.40
2023-02-06T12:35:36.027Z,4.40
2023-02-06T12:38:11.590Z,4.40
2023-02-06T12:40:47.939Z,4.50
2023-02-06T12:43:18.827Z,4.50
2023-02-06T12:45:53.141Z,4.50
2023-02-06T12:48:24.351Z,4.50
2023-02-06T12:51:08.576Z,4.50
2023-02-06T12:53:39.534Z,4.50
2023-02-06T12:56:12.061Z,4.60
2023-02-06T12:58:53.950Z,4.60
2023-02-06T13:01:43.427Z,4.60
2023-02-06T13:04:15.595Z,4.70
2023-02-06T13:06:50.497Z,4.70
2023-02-06T13:09:24.571Z,4.70
2023-02-06T13:11:53.054Z,4.70
2023-02-06T13:14:24.499Z,4.80
2023-02-06T13:16:56.421Z,4.80
2023-02-06T13:19:28.624Z,4.80
2023-02-06T13:22:44.839Z,4.80
2023-02-06T13:25:53.136Z,4.80
2023-02-06T13:28:54.592Z,4.80
2023-02-06T13:31:35.300Z,4.80
2023-02-06T13:34:08.571Z,4.80
2023-02-06T13:36:49.119Z,4.80
2023-02-06T13:39:29.633Z,4.80
2023-02-06T13:42:00.185Z,4.90
2023-02-06T13:44:31.558Z,4.90
2023-02-06T13:47:25.286Z,4.90
2023-02-06T13:50:27.857Z,5.00
2023-02-06T13:53:25.901Z,5.00
2023-02-06T13:56:10.382Z,5.00
2023-02-06T13:58:42.198Z,5.00
2023-02-06T14:01:19.906Z,5.10
2023-02-06T14:03:51.418Z,5.20
2023-02-06T14:06:38.630Z,5.20
2023-02-06T14:09:19.111Z,5.20
2023-02-06T14:12:16.204Z,5.20
2023-02-06T14:14:54.910Z,5.20
2023-02-06T14:17:37.507Z,5.10
2023-02-06T14:20:18.175Z,5.10
2023-02-06T14:22:53.991Z,5.10
2023-02-06T14:25:35.806Z,5.00
2023-02-06T14:28:15.054Z,5.10
2023-02-06T14:30:51.289Z,5.00
2023-02-06T14:33:48.188Z,5.00
2023-02-06T14:36:31.786Z,5.00
2023-02-06T14:39:47.711Z,5.00
2023-02-06T14:42:19.468Z,5.00
2023-02-06T14:44:53.818Z,4.90
2023-02-06T14:47:24.316Z,4.90
2023-02-06T14:49:53.797Z,4.90
2023-02-06T14:52:25.800Z,4.90
2023-02-06T14:54:54.030Z,4.80
2023-02-06T14:57:24.715Z,4.80
2023-02-06T14:59:55.109Z,4.80
2023-02-06T15:02:30.076Z,4.70
2023-02-06T15:04:59.138Z,4.70
2023-02-06T15:07:32.041Z,4.70
2023-02-06T15:10:03.681Z,4.70
2023-02-06T15:12:32.248Z,4.70
2023-02-06T15:15:05.153Z,4.70
2023-02-06T15:17:34.296Z,4.70
2023-02-06T15:20:25.639Z,4.70
2023-02-06T15:23:04.932Z,4.70
2023-02-06T15:25:50.738Z,4.70
2023-02-06T15:28:21.550Z,4.70
2023-02-06T15:30:54.216Z,4.70
2023-02-06T15:33:24.826Z,4.60
2023-02-06T15:35:55.170Z,4.60
2023-02-06T15:38:26.657Z,4.60
2023-02-06T15:40:57.693Z,4.60
2023-02-06T15:43:27.287Z,4.60
2023-02-06T15:45:57.932Z,4.50
2023-02-06T15:48:31.610Z,4.50
2023-02-06T15:51:01.249Z,4.50
2023-02-06T15:53:34.214Z,4.50
2023-02-06T15:56:04.509Z,4.50
2023-02-06T15:58:34.505Z,4.50
2023-02-06T16:01:05.656Z,4.50
2023-02-06T16:03:33.536Z,4.50
2023-02-06T16:06:01.311Z,4.50
2023-02-06T16:08:33.726Z,4.50
2023-02-06T16:11:25.822Z,4.40
2023-02-06T16:13:53.997Z,4.40
2023-02-06T16:16:23.785Z,4.40
2023-02-06T16:18:53.356Z,4.40
2023-02-06T16:21:27.409Z,4.40
2023-02-06T16:24:06.784Z,4.40
2023-02-06T16:26:43.827Z,4.30
2023-02-06T16:29:24.472Z,4.30
2023-02-06T16:31:59.459Z,4.30
2023-02-06T16:34:37.123Z,4.30
2023-02-06T16:37:10.750Z,4.30
2023-02-06T16:39:42.153Z,4.30
2023-02-06T16:42:14.394Z,4.20
2023-02-06T16:44:45.840Z,4.20
2023-02-06T16:47:16.289Z,4.20
2023-02-06T16:49:44.245Z,4.20
2023-02-06T16:52:18.528Z,4.20
2023-02-06T16:54:48.063Z,4.20
2023-02-06T16:57:23.212Z,4.10
2023-02-06T16:59:51.297Z,4.10
2023-02-06T17:02:19.238Z,4.00
2023-02-06T17:04:47.070Z,4.00
2023-02-06T17:07:17.542Z,4.00
2023-02-06T17:09:47.518Z,4.00
2023-02-06T17:12:16.715Z,4.00
2023-02-06T17:14:44.844Z,4.00
2023-02-06T17:17:14.222Z,3.90
2023-02-06T17:19:42.054Z,3.90
2023-02-06T17:22:11.337Z,3.90
2023-02-06T17:24:40.990Z,3.80
2023-02-06T17:27:14.965Z,3.80
2023-02-06T17:29:42.717Z,3.70
2023-02-06T17:32:11.070Z,3.70
2023-02-06T17:34:38.822Z,3.60
2023-02-06T17:37:07.918Z,3.60
2023-02-06T17:39:36.330Z,3.50
2023-02-06T17:42:04.079Z,3.50
2023-02-06T17:44:33.192Z,3.50
2023-02-06T17:47:00.931Z,3.50
2023-02-06T17:49:28.685Z,3.50
2023-02-06T17:51:56.579Z,3.50
2023-02-06T17:54:24.394Z,3.40
2023-02-06T17:56:52.210Z,3.40
2023-02-06T17:59:20.007Z,3.40
2023-02-06T18:01:49.183Z,3.30
2023-02-06T18:04:19.522Z,3.30
2023-02-06T18:06:47.399Z,3.30
2023-02-06T18:09:15.774Z,3.30
2023-02-06T18:11:43.653Z,3.30
2023-02-06T18:14:11.548Z,3.20
2023-02-06T18:16:42.747Z,3.20
2023-02-06T18:19:12.066Z,3.10
2023-02-06T18:21:39.949Z,3.10
2023-02-06T18:24:09.025Z,3.10
2023-02-06T18:26:36.994Z,3.00
2023-02-06T18:29:06.240Z,3.00
2023-02-06T18:31:36.858Z,2.90
2023-02-06T18:34:07.892Z,2.90
2023-02-06T18:36:38.104Z,2.80
2023-02-06T18:39:06.344Z,2.80
2023-02-06T18:41:51.874Z,2.80
2023-02-06T18:44:19.670Z,2.70
2023-02-06T18:46:47.624Z,2.70
2023-02-06T18:49:15.443Z,2.70
2023-02-06T18:51:44.803Z,2.60
2023-02-06T18:54:12.727Z,2.60
2023-02-06T18:56:40.636Z,2.60
2023-02-06T18:59:08.570Z,2.60
2023-02-06T19:01:36.562Z,2.60
2023-02-06T19:04:04.593Z,2.50
2023-02-06T19:06:35.503Z,2.50
2023-02-06T19:09:07.500Z,2.50
2023-02-06T19:11:35.300Z,2.40
2023-02-06T19:14:03.763Z,2.40
2023-02-06T19:16:32.615Z,2.40
2023-02-06T19:19:01.452Z,2.30
2023-02-06T19:21:29.786Z,2.30
2023-02-06T19:24:00.455Z,2.30
2023-02-06T19:26:30.225Z,2.30
2023-02-06T19:28:58.616Z,2.20
2023-02-06T19:31:26.435Z,2.20
2023-02-06T19:33:56.054Z,2.20
2023-02-06T19:36:25.493Z,2.20
2023-02-06T19:38:56.455Z,2.20
2023-02-06T19:41:26.616Z,2.10
2023-02-06T19:43:56.684Z,2.10
2023-02-06T19:46:26.187Z,2.10
2023-02-06T19:48:54.985Z,2.10
2023-02-06T19:51:24.368Z,2.00
2023-02-06T19:53:53.466Z,2.00
2023-02-06T19:56:23.993Z,2.00
2023-02-06T19:58:56.435Z,2.00
2023-02-06T20:01:25.278Z,1.90
2023-02-06T20:03:53.652Z,1.90
2023-02-06T20:06:22.406Z,1.90
2023-02-06T20:08:50.501Z,1.90
2023-02-06T20:11:21.992Z,1.80
2023-02-06T20:13:51.948Z,1.80
2023-02-06T20:16:23.854Z,1.80
2023-02-06T20:18:52.339Z,1.70
2023-02-06T20:21:22.923Z,1.70
2023-02-06T20:23:50.921Z,1.70
2023-02-06T20:26:20.210Z,1.70
2023-02-06T20:28:48.864Z,1.70
2023-02-06T20:31:17.094Z,1.60
2023-02-06T20:33:46.881Z,1.60
2023-02-06T20:36:16.578Z,1.60
2023-02-06T20:38:48.274Z,1.60
2023-02-06T20:41:16.878Z,1.50
2023-02-06T20:43:47.828Z,1.50
2023-02-06T20:46:17.254Z,1.50
2023-02-06T20:48:47.465Z,1.50
2023-02-06T20:51:15.870Z,1.50
2023-02-06T20:53:43.608Z,1.50
2023-02-06T20:56:14.399Z,1.50
2023-02-06T20:58:42.612Z,1.50
2023-02-06T21:01:15.201Z,1.40
2023-02-06T21:03:43.263Z,1.40
2023-02-06T21:06:13.877Z,1.40
2023-02-06T21:08:42.044Z,1.40
2023-02-06T21:11:10.342Z,1.40
2023-02-06T21:13:40.945Z,1.40
2023-02-06T21:16:11.316Z,1.30
2023-02-06T21:18:42.336Z,1.30
2023-02-06T21:21:14.146Z,1.30
2023-02-06T21:23:43.480Z,1.30
2023-02-06T21:26:12.865Z,1.20
2023-02-06T21:28:41.403Z,1.20
2023-02-06T21:31:13.737Z,1.20
2023-02-06T21:33:41.599Z,1.20
2023-02-06T21:36:10.248Z,1.20
2023-02-06T21:38:39.943Z,1.20
2023-02-06T21:41:09.042Z,1.20
2023-02-06T21:43:37.376Z,1.20
2023-02-06T21:46:05.899Z,1.10
2023-02-06T21:48:34.837Z,1.10
2023-02-06T21:51:09.163Z,1.10
2023-02-06T21:53:36.975Z,1.10
2023-02-06T21:56:08.204Z,1.00
2023-02-06T21:58:37.336Z,1.00
2023-02-06T22:01:08.685Z,1.00
2023-02-06T22:03:36.949Z,1.00
2023-02-06T22:06:08.520Z,1.00
2023-02-06T22:08:36.733Z,1.00
2023-02-06T22:11:14.519Z,1.00
2023-02-06T22:13:43.062Z,1.00
2023-02-06T22:16:14.282Z,0.90
2023-02-06T22:18:42.777Z,0.90
2023-02-06T22:21:13.183Z,0.80
2023-02-06T22:23:41.847Z,0.70
2023-02-06T22:26:12.650Z,0.60
2023-02-06T22:28:40.884Z,0.60
2023-02-06T22:31:11.365Z,0.60
2023-02-06T22:33:39.692Z,0.60
2023-02-06T22:36:09.647Z,0.50
2023-02-06T22:38:37.788Z,0.50
2023-02-06T22:41:07.574Z,0.50
2023-02-06T22:43:38.534Z,0.50
2023-02-06T22:46:07.600Z,0.50
2023-02-06T22:48:36.169Z,0.50
2023-02-06T22:51:06.564Z,0.50
2023-02-06T22:53:34.947Z,0.50
2023-02-06T22:56:21.908Z,0.50
2023-02-06T22:58:51.548Z,0.50
2023-02-06T23:01:21.377Z,0.40
2023-02-06T23:03:51.903Z,0.40
2023-02-06T23:06:20.285Z,0.40
2023-02-06T23:08:48.157Z,0.40
2023-02-06T23:11:17.071Z,0.40
2023-02-06T23:13:45.271Z,0.40
2023-02-06T23:16:14.616Z,0.40
2023-02-06T23:18:42.410Z,0.30
2023-02-06T23:21:12.458Z,0.30
2023-02-06T23:23:40.682Z,0.30
2023-02-06T23:26:10.440Z,0.30
2023-02-06T23:28:39.316Z,0.30
2023-02-06T23:31:07.617Z,0.20
2023-02-06T23:33:37.175Z,0.20
2023-02-06T23:36:06.431Z,0.20
2023-02-06T23:38:34.678Z,0.20
2023-02-06T23:41:08.006Z,0.20
2023-02-06T23:43:35.811Z,0.20
2023-02-06T23:46:04.327Z,0.10
2023-02-06T23:48:32.921Z,0.10
2023-02-06T23:51:02.238Z,0.10
2023-02-06T23:53:30.223Z,0.00
2023-02-06T23:55:58.650Z,0.00
2023-02-06T23:58:26.912Z,0.00
